Time;durP1;ratioP1;P1;durP2;ratioP2;P2;SDS_P1;SDS_P2;PMS_P1;PMS_P2;Temp;Humidity;BMP_temperature;BMP_pressure;BME280_temperature;BME280_humidity;BME280_pressure;Samples;Min_cycle;Max_cycle;Signal;HPM_P1;HPM_P2
2022/01/12 00:00:14;;;;;;;;;;;;;;;3.37;92.59961;103620.9;;;;-85
2022/01/12 00:04:08;;;;;;;28.1;8.8;;;;;;;;;;;;;-82
2022/01/12 00:05:14;;;;;;;;;;;;;;;3.38;92.59082;103603.3;;;;-84
2022/01/12 00:10:17;;;;;;;;;;;;;;;3.4;92.60742;103604.8;;;;-83
2022/01/12 00:15:15;;;;;;;;;;;;;;;3.41;92.59668;103611.5;;;;-82
2022/01/12 00:20:15;;;;;;;;;;;;;;;3.43;92.57031;103599.2;;;;-84
2022/01/12 00:25:29;;;;;;;;;;;;;;;3.44;92.53809;103601.9;;;;-85
2022/01/12 00:34:08;;;;;;;24.6;8.7;;;;;;;;;;;;;-84
2022/01/12 00:35:15;;;;;;;;;;;;;;;3.47;92.43555;103616.9;;;;-84
2022/01/12 00:40:15;;;;;;;;;;;;;;;3.48;92.38477;103623.1;;;;-84
2022/01/12 00:45:15;;;;;;;;;;;;;;;3.5;92.35645;103623.5;;;;-84
2022/01/12 00:50:15;;;;;;;;;;;;;;;3.51;92.33594;103610;;;;-85
2022/01/12 00:55:14;;;;;;;;;;;;;;;3.52;92.38379;103594.1;;;;-84
2022/01/12 01:00:14;;;;;;;;;;;;;;;3.54;92.44141;103585.8;;;;-85
2022/01/12 01:04:06;;;;;;;26.3;8.9;;;;;;;;;;;;;-84
2022/01/12 01:05:19;;;;;;;;;;;;;;;3.56;92.4873;103591.8;;;;-84
2022/01/12 01:10:23;;;;;;;;;;;;;;;3.58;92.48242;103590.5;;;;-85
2022/01/12 01:15:17;;;;;;;;;;;;;;;3.59;92.4541;103594.9;;;;-83
2022/01/12 01:25:31;;;;;;;;;;;;;;;3.62;92.37109;103637.4;;;;-84
2022/01/12 01:30:15;;;;;;;;;;;;;;;3.63;92.3291;103664.2;;;;-84
2022/01/12 01:34:11;;;;;;;27.7;9.6;;;;;;;;;;;;;-84
2022/01/12 01:35:14;;;;;;;;;;;;;;;3.64;92.35449;103690.7;;;;-85
2022/01/12 01:40:16;;;;;;;;;;;;;;;3.66;92.40234;103699.1;;;;-84
2022/01/12 01:55:16;;;;;;;;;;;;;;;3.7;92.34473;103745.9;;;;-84
2022/01/12 02:00:22;;;;;;;;;;;;;;;3.71;92.32715;103744.3;;;;-84
2022/01/12 02:04:06;;;;;;;26.4;9.1;;;;;;;;;;;;;-84
2022/01/12 02:05:14;;;;;;;;;;;;;;;3.73;92.31836;103750.4;;;;-85
2022/01/12 02:10:16;;;;;;;;;;;;;;;3.76;92.33496;103746.8;;;;-84
2022/01/12 02:15:22;;;;;;;;;;;;;;;3.78;92.39453;103754.1;;;;-83
2022/01/12 02:20:30;;;;;;;;;;;;;;;3.8;92.39844;103757;;;;-84
2022/01/12 02:35:35;;;;;;;;;;;;;;;3.84;92.35254;103751.8;;;;-84
2022/01/12 02:40:17;;;;;;;;;;;;;;;3.83;92.25293;103753.5;;;;-84
2022/01/12 02:55:14;;;;;;;;;;;;;;;3.83;92.15527;103757.2;;;;-82
2022/01/12 03:00:17;;;;;;;;;;;;;;;3.83;92.19824;103752.8;;;;-83
2022/01/12 03:04:06;;;;;;;28.3;8.9;;;;;;;;;;;;;-82
2022/01/12 03:05:32;;;;;;;;;;;;;;;3.83;92.24219;103764.8;;;;-83
2022/01/12 03:10:15;;;;;;;;;;;;;;;3.82;92.24023;103775.1;;;;-82
2022/01/12 03:15:14;;;;;;;;;;;;;;;3.81;92.22656;103764.2;;;;-83
2022/01/12 03:20:17;;;;;;;;;;;;;;;3.77;92.21875;103774.5;;;;-82
2022/01/12 03:25:14;;;;;;;;;;;;;;;3.72;92.23145;103775.1;;;;-82
2022/01/12 03:30:14;;;;;;;;;;;;;;;3.65;92.32227;103783.1;;;;-81
2022/01/12 03:34:06;;;;;;;27.7;8.6;;;;;;;;;;;;;-81
2022/01/12 03:35:25;;;;;;;;;;;;;;;3.54;92.44141;103795.6;;;;-82
2022/01/12 03:40:15;;;;;;;;;;;;;;;3.45;92.47656;103801.5;;;;-84
2022/01/12 03:45:14;;;;;;;;;;;;;;;3.33;92.4082;103789.3;;;;-84
2022/01/12 03:50:13;;;;;;;;;;;;;;;3.2;92.43262;103775.5;;;;-85
2022/01/12 03:55:15;;;;;;;;;;;;;;;3.01;92.32715;103773.4;;;;-84
2022/01/12 04:00:15;;;;;;;;;;;;;;;2.87;92.37305;103774.1;;;;-83
2022/01/12 04:04:06;;;;;;;21.4;7.3;;;;;;;;;;;;;-84
2022/01/12 04:05:27;;;;;;;;;;;;;;;2.72;92.39453;103773.3;;;;-84
2022/01/12 04:10:16;;;;;;;;;;;;;;;2.55;92.4668;103781.5;;;;-85
2022/01/12 04:15:14;;;;;;;;;;;;;;;2.43;92.61523;103798.7;;;;-83
2022/01/12 04:20:14;;;;;;;;;;;;;;;2.33;92.74316;103805.6;;;;-83
2022/01/12 04:25:14;;;;;;;;;;;;;;;2.22;92.83789;103796.1;;;;-84
2022/01/12 04:30:14;;;;;;;;;;;;;;;2.12;92.94629;103789.1;;;;-84
2022/01/12 04:34:04;;;;;;;19;6.9;;;;;;;;;;;;;-83
2022/01/12 04:35:15;;;;;;;;;;;;;;;2.03;93.01465;103783.1;;;;-83
2022/01/12 04:40:15;;;;;;;;;;;;;;;1.92;93.03418;103789.7;;;;-84
2022/01/12 04:45:38;;;;;;;;;;;;;;;1.8;93.05176;103793.5;;;;-83
2022/01/12 04:50:14;;;;;;;;;;;;;;;1.69;93.08008;103796.4;;;;-83
2022/01/12 04:55:15;;;;;;;;;;;;;;;1.58;93.13184;103800.5;;;;-82
2022/01/12 05:00:16;;;;;;;;;;;;;;;1.49;93.19922;103819.6;;;;-83
2022/01/12 05:15:22;;;;;;;;;;;;;;;1.21;93.16113;103831.4;;;;-81
2022/01/12 05:20:14;;;;;;;;;;;;;;;1.14;93.2207;103837.7;;;;-82
2022/01/12 05:25:17;;;;;;;;;;;;;;;1.05;93.12598;103831;;;;-82
2022/01/12 05:30:14;;;;;;;;;;;;;;;1;93.18066;103832.7;;;;-82
2022/01/12 05:34:02;;;;;;;16.7;5.4;;;;;;;;;;;;;-82
2022/01/12 05:35:30;;;;;;;;;;;;;;;0.93;93.18555;103839.1;;;;-82
2022/01/12 05:40:14;;;;;;;;;;;;;;;0.93;93.23828;103840.4;;;;-82
2022/01/12 05:45:15;;;;;;;;;;;;;;;0.9;93.2666;103844.4;;;;-82
2022/01/12 05:50:14;;;;;;;;;;;;;;;0.92;93.41016;103850.4;;;;-83
2022/01/12 05:55:15;;;;;;;;;;;;;;;0.94;93.48926;103861.1;;;;-84
2022/01/12 06:00:18;;;;;;;;;;;;;;;0.96;93.49609;103876;;;;-83
2022/01/12 06:04:03;;;;;;;13.7;4.8;;;;;;;;;;;;;-83
2022/01/12 06:05:15;;;;;;;;;;;;;;;1;93.53613;103882.1;;;;-83
2022/01/12 06:10:14;;;;;;;;;;;;;;;1.02;93.57031;103882;;;;-84
2022/01/12 06:15:13;;;;;;;;;;;;;;;1.04;93.59766;103884.4;;;;-82
2022/01/12 06:20:14;;;;;;;;;;;;;;;1.05;93.68555;103884.5;;;;-83
2022/01/12 06:25:15;;;;;;;;;;;;;;;1.06;93.74414;103893.8;;;;-82
2022/01/12 06:31:10;;;;;;;;;;;;;;;1.08;93.83203;103899.2;;;;-83
2022/01/12 06:34:00;;;;;;;11.3;4.3;;;;;;;;;;;;;-82
2022/01/12 06:35:14;;;;;;;;;;;;;;;1.08;93.84473;103910.1;;;;-82
2022/01/12 06:40:15;;;;;;;;;;;;;;;1.1;93.85938;103918.4;;;;-83
2022/01/12 06:45:14;;;;;;;;;;;;;;;1.09;93.84473;103935;;;;-84
2022/01/12 06:50:15;;;;;;;;;;;;;;;1.08;93.82324;103948.1;;;;-84
2022/01/12 06:55:24;;;;;;;;;;;;;;;1.08;93.86621;103942.3;;;;-83
2022/01/12 07:00:14;;;;;;;;;;;;;;;1.1;93.87891;103943.4;;;;-83
2022/01/12 07:03:59;;;;;;;10.1;3.8;;;;;;;;;;;;;-84
2022/01/12 07:05:14;;;;;;;;;;;;;;;1.1;93.83594;103950.2;;;;-83
2022/01/12 07:10:14;;;;;;;;;;;;;;;1.1;93.83789;103954.4;;;;-85
2022/01/12 07:15:15;;;;;;;;;;;;;;;1.11;93.89355;103964.7;;;;-85
2022/01/12 07:20:15;;;;;;;;;;;;;;;1.11;93.90527;103967.8;;;;-83
2022/01/12 07:25:14;;;;;;;;;;;;;;;1.11;93.88086;103970;;;;-84
2022/01/12 07:30:14;;;;;;;;;;;;;;;1.09;93.91992;103963.1;;;;-83
2022/01/12 07:33:58;;;;;;;7.6;3.5;;;;;;;;;;;;;-85
2022/01/12 07:35:14;;;;;;;;;;;;;;;1.08;93.93945;103957.4;;;;-84
2022/01/12 07:40:17;;;;;;;;;;;;;;;1.07;93.96973;103963.8;;;;-83
2022/01/12 07:45:15;;;;;;;;;;;;;;;1.06;94.01172;103977;;;;-84
2022/01/12 07:50:15;;;;;;;;;;;;;;;1.05;94.0293;103983.2;;;;-85
2022/01/12 07:55:14;;;;;;;;;;;;;;;1.04;94.04004;103989;;;;-83
2022/01/12 08:00:14;;;;;;;;;;;;;;;1.01;94.03418;103989.4;;;;-83
2022/01/12 08:03:57;;;;;;;7.5;3.5;;;;;;;;;;;;;-84
2022/01/12 08:05:14;;;;;;;;;;;;;;;0.99;93.99512;103994.2;;;;-83
2022/01/12 08:10:14;;;;;;;;;;;;;;;0.94;93.97461;104000.5;;;;-83
2022/01/12 08:15:14;;;;;;;;;;;;;;;0.89;93.99512;104003.6;;;;-84
2022/01/12 08:20:18;;;;;;;;;;;;;;;0.87;93.99121;104028.1;;;;-84
2022/01/12 08:25:14;;;;;;;;;;;;;;;0.86;93.95703;104033.5;;;;-84
2022/01/12 08:30:17;;;;;;;;;;;;;;;0.85;93.94629;104024.6;;;;-83
2022/01/12 08:33:57;;;;;;;6.7;3;;;;;;;;;;;;;-84
2022/01/12 08:35:14;;;;;;;;;;;;;;;0.85;93.93359;104031.7;;;;-83
2022/01/12 08:40:16;;;;;;;;;;;;;;;0.85;93.95508;104050;;;;-84
2022/01/12 08:45:15;;;;;;;;;;;;;;;0.87;93.9375;104049.6;;;;-81
2022/01/12 08:50:14;;;;;;;;;;;;;;;0.89;93.93262;104056.2;;;;-82
2022/01/12 08:55:15;;;;;;;;;;;;;;;0.92;93.90625;104055;;;;-84
2022/01/12 09:00:19;;;;;;;;;;;;;;;0.95;93.91211;104061.5;;;;-84
2022/01/12 09:03:56;;;;;;;7.4;3;;;;;;;;;;;;;-83
2022/01/12 09:05:15;;;;;;;;;;;;;;;0.97;93.8623;104070.3;;;;-83
2022/01/12 09:10:14;;;;;;;;;;;;;;;1.02;93.85059;104076.7;;;;-84
2022/01/12 09:15:16;;;;;;;;;;;;;;;1.04;93.79199;104066.3;;;;-84
2022/01/12 09:20:14;;;;;;;;;;;;;;;1.12;93.68066;104082.5;;;;-84
2022/01/12 09:25:14;;;;;;;;;;;;;;;1.22;93.49707;104086.5;;;;-85
2022/01/12 09:30:15;;;;;;;;;;;;;;;1.34;93.29688;104094.1;;;;-84
2022/01/12 09:33:54;;;;;;;5.4;2.6;;;;;;;;;;;;;-85
2022/01/12 09:35:14;;;;;;;;;;;;;;;1.47;92.93555;104107.5;;;;-85
2022/01/12 09:40:14;;;;;;;;;;;;;;;1.55;92.61914;104095.8;;;;-86
2022/01/12 09:45:16;;;;;;;;;;;;;;;1.6;92.49902;104105.5;;;;-84
2022/01/12 09:50:14;;;;;;;;;;;;;;;1.64;92.43164;104117.5;;;;-85
2022/01/12 09:55:14;;;;;;;;;;;;;;;1.68;92.3877;104114.4;;;;-85
2022/01/12 10:00:17;;;;;;;;;;;;;;;1.73;92.39941;104108.5;;;;-89
2022/01/12 10:03:54;;;;;;;7.4;3.1;;;;;;;;;;;;;-86
2022/01/12 10:05:21;;;;;;;;;;;;;;;1.78;92.31348;104120.8;;;;-85
2022/01/12 10:10:15;;;;;;;;;;;;;;;1.85;92.34863;104113.5;;;;-84
2022/01/12 10:15:16;;;;;;;;;;;;;;;1.95;92.26074;104124;;;;-85
2022/01/12 10:20:12;;;;;;;;;;;;;;;2.08;91.96582;104126.8;;;;-86
2022/01/12 10:25:23;;;;;;;;;;;;;;;2.21;91.66895;104122.4;;;;-86
2022/01/12 10:30:22;;;;;;;;;;;;;;;2.29;91.56738;104133.8;;;;-85
2022/01/12 10:34:05;;;;;;;8.9;4.1;;;;;;;;;;;;;-84
2022/01/12 10:35:14;;;;;;;;;;;;;;;2.36;91.50684;104147.4;;;;-86
2022/01/12 10:40:15;;;;;;;;;;;;;;;2.44;91.39453;104140.3;;;;-86
2022/01/12 10:45:14;;;;;;;;;;;;;;;2.53;91.24023;104126.4;;;;-85
2022/01/12 10:50:15;;;;;;;;;;;;;;;2.63;91.12109;104127.8;;;;-86
2022/01/12 10:55:17;;;;;;;;;;;;;;;2.73;90.99023;104104.8;;;;-84
2022/01/12 11:00:18;;;;;;;;;;;;;;;2.86;90.94141;104093.2;;;;-85
2022/01/12 11:03:54;;;;;;;11.6;4.7;;;;;;;;;;;;;-85
2022/01/12 11:05:14;;;;;;;;;;;;;;;2.99;90.79492;104101.4;;;;-84
2022/01/12 11:10:14;;;;;;;;;;;;;;;3.11;90.63574;104088.4;;;;-84
2022/01/12 11:15:15;;;;;;;;;;;;;;;3.22;90.50684;104083.4;;;;-85
2022/01/12 11:20:22;;;;;;;;;;;;;;;3.33;90.68359;104076.2;;;;-84
2022/01/12 11:25:26;;;;;;;;;;;;;;;3.43;90.60742;104073.7;;;;-84
2022/01/12 11:30:26;;;;;;;;;;;;;;;3.53;90.53027;104076.7;;;;-91
2022/01/12 11:33:53;;;;;;;15.5;5.8;;;;;;;;;;;;;-91
2022/01/12 11:35:15;;;;;;;;;;;;;;;3.64;90.5625;104079.3;;;;-84
2022/01/12 11:40:16;;;;;;;;;;;;;;;3.73;90.4082;104076.6;;;;-85
2022/01/12 11:45:23;;;;;;;;;;;;;;;3.83;90.49414;104080.4;;;;-90
2022/01/12 11:50:18;;;;;;;;;;;;;;;3.92;90.4043;104074.7;;;;-90
2022/01/12 11:55:21;;;;;;;;;;;;;;;4;90.38867;104069.7;;;;-89
2022/01/12 12:00:16;;;;;;;;;;;;;;;4.09;90.42773;104065.3;;;;-89
2022/01/12 12:04:03;;;;;;;14.3;5.2;;;;;;;;;;;;;-84
2022/01/12 12:05:15;;;;;;;;;;;;;;;4.16;90.4668;104048.6;;;;-83
2022/01/12 12:10:18;;;;;;;;;;;;;;;4.26;90.50781;104040.2;;;;-85
2022/01/12 12:15:15;;;;;;;;;;;;;;;4.36;90.44336;104025.5;;;;-84
2022/01/12 12:20:16;;;;;;;;;;;;;;;4.47;90.4668;104026.9;;;;-84
2022/01/12 12:25:15;;;;;;;;;;;;;;;4.57;90.65039;104035.5;;;;-85
2022/01/12 12:30:15;;;;;;;;;;;;;;;4.7;90.56836;104046.9;;;;-84
2022/01/12 12:34:02;;;;;;;16.6;5.4;;;;;;;;;;;;;-85
2022/01/12 12:35:16;;;;;;;;;;;;;;;4.87;90.23242;104064.5;;;;-85
2022/01/12 12:40:21;;;;;;;;;;;;;;;5.01;89.88184;104070.9;;;;-83
2022/01/12 12:45:14;;;;;;;;;;;;;;;5.09;89.64648;104076;;;;-84
2022/01/12 12:50:17;;;;;;;;;;;;;;;5.15;89.47461;104076.1;;;;-87
2022/01/12 12:55:16;;;;;;;;;;;;;;;5.21;89.40039;104066.7;;;;-86
2022/01/12 13:00:16;;;;;;;;;;;;;;;5.31;89.16113;104065.7;;;;-86
2022/01/12 13:04:00;;;;;;;13.9;5.4;;;;;;;;;;;;;-86
2022/01/12 13:05:15;;;;;;;;;;;;;;;5.39;88.9707;104070.4;;;;-86
2022/01/12 13:10:16;;;;;;;;;;;;;;;5.42;88.9873;104073.6;;;;-86
2022/01/12 13:15:20;;;;;;;;;;;;;;;5.38;88.94531;104059.7;;;;-86
2022/01/12 13:25:16;;;;;;;;;;;;;;;5.29;89.48242;104066.6;;;;-85
2022/01/12 13:30:15;;;;;;;;;;;;;;;5.25;89.69141;104063.2;;;;-83
2022/01/12 13:33:53;;;;;;;16.5;5.7;;;;;;;;;;;;;-83
2022/01/12 13:39:32;;;;;;;;;;;;;;;5.19;89.84375;104077.6;;;;-85
2022/01/12 13:47:34;;;;;;;;;;;;;;;5.11;90.06641;104062;;;;-83
2022/01/12 13:49:31;;;;;;;;;;;;;;;5.11;90.25098;104069.5;;;;-83
2022/01/12 13:54:38;;;;;;;;;;;;;;;5.1;90.37988;104067.4;;;;-85
2022/01/12 13:59:32;;;;;;;;;;;;;;;5.08;90.57227;104072;;;;-85
2022/01/12 14:04:05;;;;;;;16.1;5.8;;;;;;;;;;;;;-83
2022/01/12 14:04:36;;;;;;;;;;;;;;;5.05;90.50098;104066.8;;;;-82
2022/01/12 14:09:34;;;;;;;;;;;;;;;5.03;90.59375;104064.7;;;;-83
2022/01/12 14:14:32;;;;;;;;;;;;;;;5.02;90.65918;104070.8;;;;-82
2022/01/12 14:19:31;;;;;;;;;;;;;;;5.01;90.70996;104065.3;;;;-83
2022/01/12 14:24:31;;;;;;;;;;;;;;;4.98;90.7041;104068.8;;;;-84
2022/01/12 14:29:32;;;;;;;;;;;;;;;4.96;90.83105;104062.2;;;;-83
2022/01/12 14:33:51;;;;;;;13.9;6.1;;;;;;;;;;;;;-80
2022/01/12 14:34:31;;;;;;;;;;;;;;;4.96;90.88477;104060.3;;;;-80
2022/01/12 14:39:31;;;;;;;;;;;;;;;4.95;91.00293;104059.1;;;;-81
2022/01/12 14:44:37;;;;;;;;;;;;;;;4.92;91.11719;104075.3;;;;-81
2022/01/12 14:49:34;;;;;;;;;;;;;;;4.88;91.17285;104081.3;;;;-81
2022/01/12 14:54:31;;;;;;;;;;;;;;;4.85;91.13379;104079.6;;;;-81
2022/01/12 14:59:34;;;;;;;;;;;;;;;4.84;91.18457;104086.4;;;;-80
2022/01/12 15:03:50;;;;;;;15.6;6.1;;;;;;;;;;;;;-82
2022/01/12 15:04:31;;;;;;;;;;;;;;;4.81;91.16797;104091;;;;-83
2022/01/12 15:09:32;;;;;;;;;;;;;;;4.77;91.10645;104090.4;;;;-82
2022/01/12 15:14:45;;;;;;;;;;;;;;;4.74;91.13086;104090.2;;;;-83
2022/01/12 15:19:33;;;;;;;;;;;;;;;4.7;91.15625;104094.4;;;;-83
2022/01/12 15:24:32;;;;;;;;;;;;;;;4.67;91.20508;104103;;;;-82
2022/01/12 15:29:31;;;;;;;;;;;;;;;4.65;91.29688;104100.4;;;;-82
2022/01/12 15:33:51;;;;;;;14;5.4;;;;;;;;;;;;;-84
2022/01/12 15:34:31;;;;;;;;;;;;;;;4.61;91.34375;104102.7;;;;-84
2022/01/12 15:39:33;;;;;;;;;;;;;;;4.56;91.30078;104098.6;;;;-83
2022/01/12 15:44:32;;;;;;;;;;;;;;;4.51;91.38574;104093.1;;;;-84
2022/01/12 15:49:32;;;;;;;;;;;;;;;4.44;91.63281;104089.2;;;;-83
2022/01/12 15:54:31;;;;;;;;;;;;;;;4.41;91.87695;104085.3;;;;-83
2022/01/12 15:59:31;;;;;;;;;;;;;;;4.36;92.03906;104080.7;;;;-83
2022/01/12 16:03:49;;;;;;;14;5.1;;;;;;;;;;;;;-85
2022/01/12 16:04:32;;;;;;;;;;;;;;;4.28;92.28516;104069.7;;;;-84
2022/01/12 16:09:31;;;;;;;;;;;;;;;4.2;92.59277;104063.9;;;;-83
2022/01/12 16:14:31;;;;;;;;;;;;;;;4.12;92.78223;104070.5;;;;-83
2022/01/12 16:19:31;;;;;;;;;;;;;;;4.05;92.93066;104073.5;;;;-84
2022/01/12 16:24:32;;;;;;;;;;;;;;;3.98;93.0459;104070;;;;-83
2022/01/12 16:29:32;;;;;;;;;;;;;;;3.92;93.14063;104075.1;;;;-83
2022/01/12 16:33:52;;;;;;;12.9;5.7;;;;;;;;;;;;;-84
2022/01/12 16:34:31;;;;;;;;;;;;;;;3.88;93.12207;104073.3;;;;-84
2022/01/12 16:39:31;;;;;;;;;;;;;;;3.86;93.15918;104073.7;;;;-84
2022/01/12 16:44:31;;;;;;;;;;;;;;;3.83;93.16406;104078.5;;;;-83
2022/01/12 16:49:32;;;;;;;;;;;;;;;3.81;93.22559;104080;;;;-84
2022/01/12 16:54:31;;;;;;;;;;;;;;;3.8;93.19141;104081.1;;;;-83
2022/01/12 16:59:38;;;;;;;;;;;;;;;3.79;93.21094;104082;;;;-84
2022/01/12 17:03:49;;;;;;;11.2;5;;;;;;;;;;;;;-82
2022/01/12 17:04:31;;;;;;;;;;;;;;;3.78;93.20898;104072.2;;;;-84
2022/01/12 17:09:33;;;;;;;;;;;;;;;3.78;93.23047;104061;;;;-84
2022/01/12 17:14:31;;;;;;;;;;;;;;;3.77;93.26074;104073;;;;-84
2022/01/12 17:19:35;;;;;;;;;;;;;;;3.76;93.32227;104086.8;;;;-83
2022/01/12 17:24:38;;;;;;;;;;;;;;;3.75;93.38477;104087.8;;;;-83
2022/01/12 17:29:32;;;;;;;;;;;;;;;3.74;93.38477;104102.7;;;;-83
2022/01/12 17:33:48;;;;;;;12;5.2;;;;;;;;;;;;;-81
2022/01/12 17:34:31;;;;;;;;;;;;;;;3.74;93.42676;104110.5;;;;-82
2022/01/12 17:39:34;;;;;;;;;;;;;;;3.73;93.47852;104113.9;;;;-84
2022/01/12 17:44:33;;;;;;;;;;;;;;;3.73;93.47852;104121.1;;;;-83
2022/01/12 17:50:07;;;;;;;;;;;;;;;3.72;93.46582;104127.5;;;;-82
2022/01/12 17:54:31;;;;;;;;;;;;;;;3.72;93.48828;104137.5;;;;-83
2022/01/12 17:59:32;;;;;;;;;;;;;;;3.7;93.55078;104153.1;;;;-84
2022/01/12 18:03:48;;;;;;;14.2;5.2;;;;;;;;;;;;;-83
2022/01/12 18:04:31;;;;;;;;;;;;;;;3.7;93.61621;104159.5;;;;-83
2022/01/12 18:09:31;;;;;;;;;;;;;;;3.71;93.58301;104152.4;;;;-82
2022/01/12 18:14:32;;;;;;;;;;;;;;;3.7;93.65918;104150.5;;;;-85
2022/01/12 18:19:39;;;;;;;;;;;;;;;3.71;93.75684;104147.6;;;;-84
2022/01/12 18:24:31;;;;;;;;;;;;;;;3.71;93.78906;104152;;;;-84
2022/01/12 18:29:31;;;;;;;;;;;;;;;3.72;93.79199;104164.1;;;;-82
2022/01/12 18:33:48;;;;;;;12.6;5;;;;;;;;;;;;;-82
2022/01/12 18:34:32;;;;;;;;;;;;;;;3.73;93.80469;104167.4;;;;-84
2022/01/12 18:39:32;;;;;;;;;;;;;;;3.74;93.81934;104175.3;;;;-83
2022/01/12 18:44:31;;;;;;;;;;;;;;;3.76;93.84277;104176.2;;;;-82
2022/01/12 18:49:32;;;;;;;;;;;;;;;3.77;93.91016;104182.7;;;;-83
2022/01/12 18:54:31;;;;;;;;;;;;;;;3.77;93.95703;104182.5;;;;-83
2022/01/12 18:59:31;;;;;;;;;;;;;;;3.78;94;104182;;;;-81
2022/01/12 19:03:47;;;;;;;15.7;5.5;;;;;;;;;;;;;-82
2022/01/12 19:04:31;;;;;;;;;;;;;;;3.79;94.00293;104184;;;;-81
2022/01/12 19:09:34;;;;;;;;;;;;;;;3.79;94.01367;104182.5;;;;-81
2022/01/12 19:14:32;;;;;;;;;;;;;;;3.81;94.06055;104184.4;;;;-81
2022/01/12 19:19:31;;;;;;;;;;;;;;;3.81;94.07129;104185.3;;;;-84
2022/01/12 19:24:32;;;;;;;;;;;;;;;3.82;94.15137;104179;;;;-84
2022/01/12 19:29:31;;;;;;;;;;;;;;;3.82;94.18359;104174.9;;;;-83
2022/01/12 19:33:48;;;;;;;13.8;5.5;;;;;;;;;;;;;-84
2022/01/12 19:34:31;;;;;;;;;;;;;;;3.83;94.22754;104165.6;;;;-83
2022/01/12 19:39:31;;;;;;;;;;;;;;;3.83;94.29297;104170.6;;;;-83
2022/01/12 19:44:37;;;;;;;;;;;;;;;3.84;94.32715;104175.3;;;;-82
2022/01/12 19:49:33;;;;;;;;;;;;;;;3.84;94.35059;104173.7;;;;-83
2022/01/12 19:54:34;;;;;;;;;;;;;;;3.84;94.37207;104174.2;;;;-84
2022/01/12 19:59:31;;;;;;;;;;;;;;;3.84;94.38086;104183.1;;;;-84
2022/01/12 20:03:47;;;;;;;15.6;5.4;;;;;;;;;;;;;-83
2022/01/12 20:04:31;;;;;;;;;;;;;;;3.85;94.36133;104183;;;;-83
2022/01/12 20:09:37;;;;;;;;;;;;;;;3.85;94.33984;104190.7;;;;-84
2022/01/12 20:14:33;;;;;;;;;;;;;;;3.85;94.40723;104182.3;;;;-84
2022/01/12 20:24:35;;;;;;;;;;;;;;;3.84;94.48047;104179.3;;;;-83
2022/01/12 20:29:32;;;;;;;;;;;;;;;3.84;94.48926;104176.1;;;;-83
2022/01/12 20:33:46;;;;;;;13.9;5;;;;;;;;;;;;;-83
2022/01/12 20:34:31;;;;;;;;;;;;;;;3.82;94.52051;104163.4;;;;-83
2022/01/12 20:39:31;;;;;;;;;;;;;;;3.82;94.57422;104177.6;;;;-82
2022/01/12 20:44:31;;;;;;;;;;;;;;;3.82;94.55078;104179.6;;;;-81
2022/01/12 20:49:31;;;;;;;;;;;;;;;3.81;94.57031;104178.2;;;;-81
2022/01/12 20:54:31;;;;;;;;;;;;;;;3.8;94.65723;104174.3;;;;-84
2022/01/12 20:59:32;;;;;;;;;;;;;;;3.8;94.65527;104176;;;;-83
2022/01/12 21:03:46;;;;;;;12.9;5;;;;;;;;;;;;;-84
2022/01/12 21:04:31;;;;;;;;;;;;;;;3.78;94.66211;104178.4;;;;-83
2022/01/12 21:09:31;;;;;;;;;;;;;;;3.78;94.68359;104168.7;;;;-83
2022/01/12 21:14:32;;;;;;;;;;;;;;;3.77;94.70117;104172.6;;;;-85
2022/01/12 21:19:31;;;;;;;;;;;;;;;3.75;94.6123;104167.1;;;;-84
2022/01/12 21:24:31;;;;;;;;;;;;;;;3.74;94.57813;104166.4;;;;-84
2022/01/12 21:29:32;;;;;;;;;;;;;;;3.72;94.58496;104168.4;;;;-83
2022/01/12 21:33:46;;;;;;;10.9;4.7;;;;;;;;;;;;;-83
2022/01/12 21:34:37;;;;;;;;;;;;;;;3.71;94.55957;104175.9;;;;-82
2022/01/12 21:39:33;;;;;;;;;;;;;;;3.7;94.48145;104185.2;;;;-84
2022/01/12 21:44:31;;;;;;;;;;;;;;;3.7;94.40527;104190.1;;;;-84
2022/01/12 21:49:31;;;;;;;;;;;;;;;3.69;94.40137;104188.7;;;;-83
2022/01/12 21:54:31;;;;;;;;;;;;;;;3.68;94.41211;104188.4;;;;-84
2022/01/12 21:59:32;;;;;;;;;;;;;;;3.68;94.36914;104182.9;;;;-84
2022/01/12 22:03:46;;;;;;;12.5;4.6;;;;;;;;;;;;;-84
2022/01/12 22:04:31;;;;;;;;;;;;;;;3.67;94.3252;104180.4;;;;-84
2022/01/12 22:09:31;;;;;;;;;;;;;;;3.68;94.3252;104179;;;;-86
2022/01/12 22:14:32;;;;;;;;;;;;;;;3.68;94.36914;104189.3;;;;-85
2022/01/12 22:19:33;;;;;;;;;;;;;;;3.68;94.41211;104189.8;;;;-81
2022/01/12 22:24:32;;;;;;;;;;;;;;;3.67;94.43164;104186.5;;;;-81
2022/01/12 22:29:31;;;;;;;;;;;;;;;3.67;94.43066;104178.4;;;;-82
2022/01/12 22:33:45;;;;;;;12.9;4.6;;;;;;;;;;;;;-82
2022/01/12 22:34:31;;;;;;;;;;;;;;;3.65;94.4502;104185.7;;;;-81
2022/01/12 22:39:32;;;;;;;;;;;;;;;3.64;94.44824;104169.4;;;;-85
2022/01/12 22:44:37;;;;;;;;;;;;;;;3.62;94.3877;104168.4;;;;-84
2022/01/12 22:49:31;;;;;;;;;;;;;;;3.6;94.41797;104161.5;;;;-84
2022/01/12 22:54:31;;;;;;;;;;;;;;;3.59;94.44629;104161;;;;-84
2022/01/12 22:59:31;;;;;;;;;;;;;;;3.59;94.45508;104156.9;;;;-84
2022/01/12 23:03:45;;;;;;;11.8;4.4;;;;;;;;;;;;;-83
2022/01/12 23:04:31;;;;;;;;;;;;;;;3.58;94.47754;104163.8;;;;-83
2022/01/12 23:09:31;;;;;;;;;;;;;;;3.57;94.48633;104162.6;;;;-83
2022/01/12 23:14:31;;;;;;;;;;;;;;;3.57;94.48633;104168.4;;;;-84
2022/01/12 23:19:40;;;;;;;;;;;;;;;3.57;94.57324;104171.7;;;;-85
2022/01/12 23:24:32;;;;;;;;;;;;;;;3.57;94.46484;104179.8;;;;-85
2022/01/12 23:29:31;;;;;;;;;;;;;;;3.58;94.54199;104174;;;;-84
2022/01/12 23:34:08;;;;;;;10.9;4.4;;;;;;;;;;;;;-84
2022/01/12 23:49:42;;;;;;;;;;;;;;;3.61;94.65625;104167;;;;-83
2022/01/12 23:59:32;;;;;;;;;;;;;;;3.64;94.64063;104165.6;;;;-85
